Time;durP1;ratioP1;P1;durP2;ratioP2;P2;SDS_P1;SDS_P2;PMS_P1;PMS_P2;Temp;Humidity;BMP_temperature;BMP_pressure;BME280_temperature;BME280_humidity;BME280_pressure;Samples;Min_cycle;Max_cycle;Signal;HPM_P1;HPM_P2
2023/10/24 00:00:12;;;;;;;16.05;12.40;;;12.10;99.90;;;;;;4994457;28;20477;-71
2023/10/24 00:02:38;;;;;;;19.88;13.07;;;12.10;99.90;;;;;;4988166;28;20498;-71
2023/10/24 00:05:05;;;;;;;21.52;14.93;;;12.10;99.90;;;;;;4987785;28;20053;-71
2023/10/24 00:07:30;;;;;;;16.33;14.45;;;12.10;99.90;;;;;;4988326;28;20038;-71
2023/10/24 00:09:56;;;;;;;17.73;15.20;;;12.10;99.90;;;;;;4991546;28;20030;-71
2023/10/24 00:12:21;;;;;;;18.38;13.38;;;12.10;99.90;;;;;;4996389;28;20046;-71
2023/10/24 00:14:47;;;;;;;24.45;15.70;;;12.10;99.90;;;;;;4987528;28;20064;-71
2023/10/24 00:17:12;;;;;;;16.83;15.13;;;12.20;99.90;;;;;;4981763;28;20049;-71
2023/10/24 00:19:38;;;;;;;17.67;15.57;;;12.20;99.90;;;;;;4996376;28;20022;-71
2023/10/24 00:22:03;;;;;;;16.02;14.20;;;12.20;99.90;;;;;;4986966;28;20033;-71
2023/10/24 00:24:29;;;;;;;17.25;13.65;;;12.30;99.90;;;;;;4987031;28;20039;-71
2023/10/24 00:26:55;;;;;;;19.58;14.95;;;12.30;99.90;;;;;;4986627;28;20481;-71
2023/10/24 00:29:21;;;;;;;23.80;13.52;;;12.30;99.90;;;;;;4994812;28;20026;-71
2023/10/24 00:31:47;;;;;;;15.38;13.18;;;12.30;99.90;;;;;;4986219;28;20034;-71
2023/10/24 00:34:12;;;;;;;14.63;12.75;;;12.30;99.90;;;;;;4979364;28;20022;-71
2023/10/24 00:36:40;;;;;;;13.80;12.27;;;12.30;99.90;;;;;;4986920;28;20083;-71
2023/10/24 00:39:06;;;;;;;16.63;13.23;;;12.40;99.90;;;;;;4990006;28;20514;-72
2023/10/24 00:41:31;;;;;;;13.55;12.05;;;12.40;99.90;;;;;;4986000;28;20061;-71
2023/10/24 00:43:57;;;;;;;14.48;12.63;;;12.40;99.90;;;;;;4986657;28;20146;-71
2023/10/24 00:46:23;;;;;;;15.80;12.35;;;12.40;99.90;;;;;;4987342;28;20066;-71
2023/10/24 00:48:49;;;;;;;16.17;13.18;;;12.40;99.90;;;;;;5019230;28;20108;-71
2023/10/24 00:51:15;;;;;;;19.92;14.38;;;12.40;99.90;;;;;;4987444;28;20026;-71
2023/10/24 00:53:41;;;;;;;16.85;12.02;;;12.40;99.90;;;;;;4987580;28;20098;-71
2023/10/24 00:56:08;;;;;;;18.75;12.75;;;12.30;99.90;;;;;;4991383;28;20030;-71
2023/10/24 00:58:35;;;;;;;15.45;12.40;;;12.40;99.90;;;;;;5003397;28;20121;-71
2023/10/24 01:01:03;;;;;;;18.15;11.63;;;12.40;99.90;;;;;;4989845;28;20039;-71
2023/10/24 01:03:28;;;;;;;15.57;10.57;;;12.40;99.90;;;;;;4989073;28;20027;-71
2023/10/24 01:05:54;;;;;;;14.43;11.23;;;12.40;99.90;;;;;;4992104;28;20050;-71
2023/10/24 01:08:20;;;;;;;17.17;10.90;;;12.40;99.90;;;;;;4992300;28;20076;-71
2023/10/24 01:10:46;;;;;;;13.63;10.27;;;12.40;99.90;;;;;;4991141;28;20034;-71
2023/10/24 01:13:11;;;;;;;18.40;10.93;;;12.40;99.90;;;;;;5021003;28;20441;-71
2023/10/24 01:15:37;;;;;;;17.42;11.55;;;12.40;99.90;;;;;;4983777;28;20287;-71
2023/10/24 01:18:03;;;;;;;14.55;10.93;;;12.40;99.90;;;;;;4984424;28;20018;-71
2023/10/24 01:20:29;;;;;;;14.18;10.98;;;12.30;99.90;;;;;;4990043;28;20041;-72
2023/10/24 01:22:54;;;;;;;14.60;11.40;;;12.30;99.90;;;;;;4990990;28;20029;-71
2023/10/24 01:25:20;;;;;;;17.00;11.48;;;12.30;99.90;;;;;;4991361;28;20038;-71
2023/10/24 01:27:53;;;;;;;15.75;10.50;;;12.30;99.90;;;;;;4989735;28;20022;-71
2023/10/24 01:30:19;;;;;;;14.68;9.98;;;12.30;99.90;;;;;;4989528;28;20065;-71
2023/10/24 01:32:45;;;;;;;14.02;9.75;;;12.30;99.90;;;;;;4989614;28;20054;-71
2023/10/24 01:35:10;;;;;;;20.60;9.60;;;12.30;99.90;;;;;;4988652;28;20038;-71
2023/10/24 01:37:36;;;;;;;15.23;10.00;;;12.30;99.90;;;;;;5004024;28;20478;-71
2023/10/24 01:40:04;;;;;;;13.50;8.73;;;12.30;99.90;;;;;;4989795;28;20436;-71
2023/10/24 01:42:29;;;;;;;15.70;8.98;;;12.30;99.90;;;;;;4989787;28;20051;-71
2023/10/24 01:44:55;;;;;;;15.48;9.70;;;12.30;99.90;;;;;;4987285;28;20102;-71
2023/10/24 01:47:20;;;;;;;12.25;8.88;;;12.40;99.90;;;;;;4987857;28;20019;-71
2023/10/24 01:49:46;;;;;;;12.20;8.23;;;12.30;99.90;;;;;;4990161;28;20435;-71
2023/10/24 01:52:11;;;;;;;12.98;8.50;;;12.30;99.90;;;;;;4989833;28;20073;-72
2023/10/24 01:54:37;;;;;;;11.00;7.25;;;12.30;99.90;;;;;;4988225;28;20521;-71
2023/10/24 01:57:02;;;;;;;11.75;7.82;;;12.30;99.90;;;;;;4988400;28;20042;-71
2023/10/24 01:59:28;;;;;;;10.02;7.38;;;12.30;99.90;;;;;;4990897;28;20031;-71
2023/10/24 02:01:54;;;;;;;13.32;7.28;;;12.40;99.90;;;;;;4988070;28;20057;-71
2023/10/24 02:04:19;;;;;;;10.30;6.68;;;12.40;99.90;;;;;;4987781;28;20103;-71
2023/10/24 02:06:45;;;;;;;11.77;6.50;;;12.40;99.90;;;;;;4992007;28;20031;-71
2023/10/24 02:09:11;;;;;;;8.55;5.80;;;12.40;99.90;;;;;;4990775;28;20026;-71
2023/10/24 02:11:36;;;;;;;10.38;5.72;;;12.40;99.90;;;;;;4989158;28;20061;-71
2023/10/24 02:14:04;;;;;;;11.05;6.15;;;12.40;99.90;;;;;;4989018;28;20038;-71
2023/10/24 02:16:29;;;;;;;8.52;6.07;;;12.40;99.90;;;;;;4992513;28;20026;-71
2023/10/24 02:18:55;;;;;;;7.35;5.30;;;12.40;99.90;;;;;;4989252;28;20038;-71
2023/10/24 02:21:20;;;;;;;7.38;5.65;;;12.40;99.90;;;;;;4994666;28;20042;-71
2023/10/24 02:23:46;;;;;;;7.57;4.88;;;12.30;99.90;;;;;;4989227;28;20033;-71
2023/10/24 02:26:15;;;;;;;7.07;3.97;;;12.30;99.90;;;;;;4984002;28;20039;-71
2023/10/24 02:28:41;;;;;;;5.80;4.20;;;12.30;99.90;;;;;;4988157;28;20030;-71
2023/10/24 02:31:07;;;;;;;6.47;3.83;;;12.30;99.90;;;;;;4989565;28;20430;-71
2023/10/24 02:33:32;;;;;;;4.22;3.50;;;12.30;99.90;;;;;;4988396;28;20035;-71
2023/10/24 02:36:08;;;;;;;8.48;4.05;;;12.30;99.90;;;;;;4986989;28;20034;-71
2023/10/24 02:38:34;;;;;;;6.00;3.92;;;12.30;99.90;;;;;;4988169;28;20113;-71
2023/10/24 02:41:00;;;;;;;8.02;3.95;;;12.30;99.90;;;;;;4987812;28;20109;-71
2023/10/24 02:43:26;;;;;;;6.38;4.03;;;12.30;99.90;;;;;;4987391;28;20117;-71
2023/10/24 02:45:52;;;;;;;8.20;4.65;;;12.30;99.90;;;;;;4990778;28;20065;-71
2023/10/24 02:48:17;;;;;;;6.05;4.28;;;12.20;99.90;;;;;;4988291;28;20434;-71
2023/10/24 02:50:43;;;;;;;6.30;4.47;;;12.30;99.90;;;;;;4984262;28;20532;-71
2023/10/24 02:53:09;;;;;;;7.13;4.03;;;12.30;99.90;;;;;;4982202;28;20018;-71
2023/10/24 02:55:35;;;;;;;6.28;4.60;;;12.20;99.90;;;;;;4989989;28;20375;-71
2023/10/24 02:58:01;;;;;;;7.68;4.78;;;12.30;99.90;;;;;;5001064;28;20025;-71
2023/10/24 03:00:26;;;;;;;6.43;4.75;;;12.30;99.90;;;;;;4990634;28;20079;-71
2023/10/24 03:02:52;;;;;;;9.85;6.13;;;12.20;99.90;;;;;;4989046;28;20027;-71
2023/10/24 03:05:18;;;;;;;8.05;5.15;;;12.20;99.90;;;;;;4987331;28;20075;-71
2023/10/24 03:07:44;;;;;;;8.43;4.97;;;12.20;99.90;;;;;;4988021;28;20038;-71
2023/10/24 03:10:10;;;;;;;7.32;5.30;;;12.20;99.90;;;;;;4987416;28;20046;-71
2023/10/24 03:12:35;;;;;;;7.50;4.53;;;12.20;99.90;;;;;;4990912;28;20034;-71
2023/10/24 03:15:01;;;;;;;5.82;4.10;;;12.20;99.90;;;;;;4989927;28;20030;-71
2023/10/24 03:17:26;;;;;;;8.52;4.35;;;12.20;99.90;;;;;;4986201;28;20027;-71
2023/10/24 03:19:52;;;;;;;9.40;4.03;;;12.10;99.90;;;;;;4986442;28;20027;-71
2023/10/24 03:22:18;;;;;;;5.90;3.85;;;12.20;99.90;;;;;;4990157;28;20038;-71
2023/10/24 03:24:43;;;;;;;4.65;3.38;;;12.10;99.90;;;;;;4987389;28;20039;-71
2023/10/24 03:27:12;;;;;;;5.45;3.58;;;12.10;99.90;;;;;;4980423;28;20023;-71
2023/10/24 03:29:40;;;;;;;5.88;4.18;;;12.10;99.90;;;;;;4988643;28;20068;-72
2023/10/24 03:32:06;;;;;;;6.93;3.97;;;12.10;99.90;;;;;;4978587;28;20030;-71
2023/10/24 03:34:33;;;;;;;4.60;3.00;;;12.10;99.90;;;;;;4983816;28;20061;-71
2023/10/24 03:36:59;;;;;;;5.30;3.38;;;12.10;99.90;;;;;;4992966;28;20042;-71
2023/10/24 03:39:25;;;;;;;6.93;3.85;;;12.00;99.90;;;;;;4987669;28;20030;-71
2023/10/24 03:41:50;;;;;;;4.53;3.28;;;12.00;99.90;;;;;;4986551;28;20058;-71
2023/10/24 03:44:16;;;;;;;5.28;3.25;;;12.10;99.90;;;;;;5000440;28;20038;-71
2023/10/24 03:46:57;;;;;;;4.15;2.47;;;12.00;99.90;;;;;;4973872;28;20051;-71
2023/10/24 03:49:22;;;;;;;3.65;2.25;;;12.00;99.90;;;;;;4986447;28;20042;-71
2023/10/24 03:51:48;;;;;;;3.92;2.58;;;12.00;99.90;;;;;;4986317;28;20067;-71
2023/10/24 03:54:14;;;;;;;4.32;3.30;;;12.00;99.90;;;;;;4984778;28;20087;-71
2023/10/24 03:56:40;;;;;;;5.28;3.20;;;12.00;99.90;;;;;;4987418;28;20019;-71
2023/10/24 03:59:06;;;;;;;5.85;3.08;;;12.00;99.90;;;;;;4987243;28;20038;-71
2023/10/24 04:01:34;;;;;;;3.40;2.75;;;12.00;99.90;;;;;;5018491;28;20075;-71
2023/10/24 04:04:00;;;;;;;5.72;3.42;;;12.00;99.90;;;;;;4989746;28;20485;-71
2023/10/24 04:06:26;;;;;;;4.45;3.40;;;12.00;99.90;;;;;;4987980;28;20049;-71
2023/10/24 04:08:51;;;;;;;3.95;3.13;;;11.90;99.90;;;;;;4987898;28;20474;-71
2023/10/24 04:11:18;;;;;;;4.80;3.67;;;11.90;99.90;;;;;;4987726;28;20539;-71
2023/10/24 04:13:45;;;;;;;6.10;3.72;;;11.90;99.90;;;;;;4985308;28;20050;-71
2023/10/24 04:16:11;;;;;;;4.95;3.47;;;11.90;99.90;;;;;;5043742;28;20060;-71
2023/10/24 04:18:37;;;;;;;5.22;3.58;;;11.90;99.90;;;;;;4978745;28;20038;-71
2023/10/24 04:21:02;;;;;;;5.07;3.85;;;11.90;99.90;;;;;;4982568;28;20433;-71
2023/10/24 04:23:28;;;;;;;5.53;3.80;;;11.90;99.90;;;;;;4985625;28;20027;-71
2023/10/24 04:25:54;;;;;;;5.68;4.03;;;11.90;99.90;;;;;;4987969;28;20038;-71
2023/10/24 04:28:19;;;;;;;5.28;4.15;;;11.90;99.90;;;;;;4987076;28;20532;-71
2023/10/24 04:30:45;;;;;;;5.60;3.97;;;11.90;99.90;;;;;;4990189;28;20113;-71
2023/10/24 04:33:11;;;;;;;6.82;4.65;;;11.90;99.90;;;;;;4989665;28;20041;-71
2023/10/24 04:35:45;;;;;;;5.68;4.20;;;11.90;99.90;;;;;;4981905;28;20027;-71
2023/10/24 04:38:11;;;;;;;5.35;4.07;;;12.00;99.90;;;;;;4980127;28;20478;-71
2023/10/24 04:40:38;;;;;;;7.07;4.20;;;11.90;99.90;;;;;;4988166;28;20097;-71
2023/10/24 04:43:04;;;;;;;6.22;4.35;;;11.80;99.90;;;;;;4983195;28;20046;-71
2023/10/24 04:45:31;;;;;;;6.28;4.40;;;11.80;99.90;;;;;;4990547;28;20046;-71
2023/10/24 04:47:58;;;;;;;6.20;4.63;;;11.90;99.90;;;;;;4991188;28;20030;-71
2023/10/24 04:50:24;;;;;;;7.10;4.95;;;11.90;99.90;;;;;;4986736;28;20066;-71
2023/10/24 04:52:50;;;;;;;6.75;5.00;;;11.80;99.90;;;;;;4987838;28;20156;-71
2023/10/24 04:55:16;;;;;;;8.60;4.40;;;11.80;99.90;;;;;;4990442;28;20024;-71
2023/10/24 04:57:44;;;;;;;6.13;4.53;;;11.80;99.90;;;;;;4993009;28;20192;-71
2023/10/24 05:00:13;;;;;;;7.60;5.60;;;11.80;99.90;;;;;;4989253;28;20031;-71
2023/10/24 05:02:40;;;;;;;5.78;4.35;;;11.80;99.90;;;;;;4991335;28;20018;-71
2023/10/24 05:05:06;;;;;;;7.28;4.95;;;11.80;99.90;;;;;;4983455;28;20510;-71
2023/10/24 05:07:32;;;;;;;8.82;5.28;;;11.80;99.90;;;;;;4990866;28;20386;-71
2023/10/24 05:09:57;;;;;;;7.72;5.18;;;11.80;99.90;;;;;;4990357;28;20027;-71
2023/10/24 05:12:23;;;;;;;7.00;5.10;;;11.80;99.90;;;;;;4986363;28;20027;-72
2023/10/24 05:14:49;;;;;;;8.95;5.63;;;11.80;99.90;;;;;;4984230;28;20026;-72
2023/10/24 05:17:15;;;;;;;7.60;5.28;;;11.70;99.90;;;;;;4981861;28;20111;-72
2023/10/24 05:19:41;;;;;;;6.30;4.85;;;11.70;99.90;;;;;;4990296;28;20108;-72
2023/10/24 05:22:10;;;;;;;7.57;5.68;;;11.70;99.90;;;;;;4988600;28;20038;-72
2023/10/24 05:24:37;;;;;;;6.70;4.93;;;11.80;99.90;;;;;;4990507;28;20042;-72
2023/10/24 05:27:03;;;;;;;7.72;6.00;;;11.70;99.90;;;;;;4990661;28;20034;-72
2023/10/24 05:29:31;;;;;;;6.53;4.80;;;11.70;99.90;;;;;;4989205;28;20064;-72
2023/10/24 05:31:57;;;;;;;6.85;5.30;;;11.70;99.90;;;;;;4989505;28;20026;-72
2023/10/24 05:34:22;;;;;;;6.30;5.20;;;11.70;99.90;;;;;;4989104;28;20492;-72
2023/10/24 05:36:49;;;;;;;8.25;5.60;;;11.70;99.90;;;;;;4991059;28;20041;-72
2023/10/24 05:39:15;;;;;;;9.55;6.18;;;11.70;99.90;;;;;;4991860;28;20036;-72
2023/10/24 05:41:41;;;;;;;7.47;6.05;;;11.70;99.90;;;;;;4987359;28;20058;-72
2023/10/24 05:44:06;;;;;;;8.45;5.93;;;11.70;99.90;;;;;;4989403;28;20065;-72
2023/10/24 05:46:32;;;;;;;7.05;5.82;;;11.60;99.90;;;;;;4989856;28;20034;-72
2023/10/24 05:48:58;;;;;;;7.60;6.07;;;11.60;99.90;;;;;;4984559;28;20382;-72
2023/10/24 05:51:27;;;;;;;6.93;5.93;;;11.60;99.90;;;;;;4985238;28;20443;-72
2023/10/24 05:53:53;;;;;;;9.45;6.18;;;11.70;99.90;;;;;;4984196;28;20030;-72
2023/10/24 05:56:19;;;;;;;8.75;6.45;;;11.60;99.90;;;;;;4989153;28;20022;-72
2023/10/24 05:58:45;;;;;;;7.75;6.55;;;11.60;99.90;;;;;;4984297;28;20062;-72
2023/10/24 06:01:11;;;;;;;7.30;5.82;;;11.60;99.90;;;;;;4978371;28;20061;-72
2023/10/24 06:03:36;;;;;;;8.85;6.72;;;11.60;99.90;;;;;;4988752;28;20053;-72
2023/10/24 06:06:02;;;;;;;7.38;6.25;;;11.60;99.90;;;;;;4987816;28;20038;-72
2023/10/24 06:08:27;;;;;;;6.60;5.88;;;11.60;99.90;;;;;;4986931;28;20482;-72
2023/10/24 06:11:01;;;;;;;7.13;5.85;;;11.60;99.90;;;;;;4989473;28;20022;-72
2023/10/24 06:13:27;;;;;;;7.60;6.30;;;11.60;99.90;;;;;;4990095;28;20023;-72
2023/10/24 06:15:53;;;;;;;6.60;5.90;;;11.60;99.90;;;;;;4982574;28;20027;-72
2023/10/24 06:18:19;;;;;;;6.47;5.45;;;11.60;99.90;;;;;;4990415;28;20478;-72
2023/10/24 06:20:46;;;;;;;7.43;6.20;;;11.60;99.90;;;;;;4987239;28;20044;-72
2023/10/24 06:23:11;;;;;;;8.10;6.78;;;11.60;99.90;;;;;;4979524;28;20075;-72
2023/10/24 06:25:38;;;;;;;7.93;6.22;;;11.60;99.90;;;;;;4985256;28;20031;-72
2023/10/24 06:28:04;;;;;;;7.72;6.68;;;11.60;99.90;;;;;;4982844;28;20019;-71
2023/10/24 06:30:31;;;;;;;8.73;6.38;;;11.60;99.90;;;;;;4972530;28;20045;-72
2023/10/24 06:32:56;;;;;;;7.25;5.72;;;11.60;99.90;;;;;;4989504;28;20030;-72
2023/10/24 06:35:22;;;;;;;6.90;5.40;;;11.60;99.90;;;;;;4984204;28;20037;-72
2023/10/24 06:37:47;;;;;;;8.15;5.50;;;11.60;99.90;;;;;;4989411;28;20110;-72
2023/10/24 06:40:13;;;;;;;20.33;10.65;;;11.60;99.90;;;;;;4989530;28;20080;-72
2023/10/24 06:42:39;;;;;;;12.63;5.95;;;11.70;99.90;;;;;;4984722;28;20053;-72
2023/10/24 06:45:06;;;;;;;7.22;5.57;;;11.70;99.90;;;;;;4987608;28;20039;-72
2023/10/24 06:47:32;;;;;;;6.60;4.88;;;11.60;99.90;;;;;;4978871;28;20029;-72
2023/10/24 06:49:57;;;;;;;6.78;4.72;;;11.60;99.90;;;;;;4984058;28;20043;-72
2023/10/24 06:52:23;;;;;;;7.07;5.00;;;11.50;99.90;;;;;;4982304;28;20382;-72
2023/10/24 06:54:48;;;;;;;5.18;4.10;;;11.50;99.90;;;;;;4982045;28;20112;-72
2023/10/24 06:57:14;;;;;;;5.90;4.40;;;11.50;99.90;;;;;;4982790;28;20091;-72
2023/10/24 06:59:40;;;;;;;5.57;4.10;;;11.50;99.90;;;;;;4983846;28;20027;-72
2023/10/24 07:02:05;;;;;;;6.40;4.07;;;11.50;99.90;;;;;;4974434;28;20061;-71
2023/10/24 07:04:31;;;;;;;6.78;3.60;;;11.50;99.90;;;;;;4980296;28;20359;-72
2023/10/24 07:06:56;;;;;;;5.63;4.13;;;11.40;99.90;;;;;;4979546;28;20117;-71
2023/10/24 07:09:22;;;;;;;6.60;4.15;;;11.50;99.90;;;;;;4985129;28;20041;-72
2023/10/24 07:11:48;;;;;;;4.28;3.47;;;11.50;99.90;;;;;;4983922;28;20030;-71
2023/10/24 07:14:13;;;;;;;5.72;3.63;;;11.50;99.90;;;;;;4982887;28;20567;-71
2023/10/24 07:16:39;;;;;;;4.93;3.38;;;11.50;99.90;;;;;;4983254;28;20031;-71
2023/10/24 07:19:04;;;;;;;4.38;3.15;;;11.50;99.90;;;;;;4986596;28;20049;-71
2023/10/24 07:21:30;;;;;;;4.43;3.28;;;11.50;99.90;;;;;;4990822;28;20057;-71
2023/10/24 07:23:56;;;;;;;4.00;3.42;;;11.50;99.90;;;;;;4990060;28;20513;-71
2023/10/24 07:26:22;;;;;;;4.78;3.55;;;11.50;99.90;;;;;;4980713;28;20034;-71
2023/10/24 07:28:47;;;;;;;6.65;4.20;;;11.60;99.90;;;;;;4981962;28;20041;-71
2023/10/24 07:31:13;;;;;;;5.20;3.72;;;11.60;99.90;;;;;;4971340;28;20494;-71
2023/10/24 07:33:38;;;;;;;4.78;3.67;;;11.60;99.90;;;;;;4979683;28;20383;-71
2023/10/24 07:36:08;;;;;;;6.00;4.32;;;11.70;99.90;;;;;;4986168;28;20036;-71
2023/10/24 07:38:35;;;;;;;7.20;4.38;;;11.70;99.90;;;;;;4983032;28;20470;-71
2023/10/24 07:41:01;;;;;;;7.07;4.30;;;11.70;99.90;;;;;;4989188;28;20042;-71
2023/10/24 07:43:27;;;;;;;8.60;4.88;;;11.80;99.90;;;;;;4986837;28;20581;-71
2023/10/24 07:45:53;;;;;;;7.07;4.63;;;11.70;99.90;;;;;;4985630;28;20046;-71
2023/10/24 07:48:20;;;;;;;8.75;5.88;;;11.80;99.90;;;;;;4985918;28;20050;-71
2023/10/24 07:50:53;;;;;;;7.28;5.32;;;11.80;99.90;;;;;;4986008;28;20433;-71
2023/10/24 07:53:19;;;;;;;6.00;4.85;;;11.80;99.90;;;;;;4986723;28;20026;-71
2023/10/24 07:55:45;;;;;;;8.07;5.00;;;11.80;99.90;;;;;;4981072;28;20486;-71
2023/10/24 07:58:10;;;;;;;8.45;5.55;;;11.80;99.90;;;;;;4987037;28;20053;-71
2023/10/24 08:00:36;;;;;;;8.70;5.38;;;11.80;99.90;;;;;;4986021;28;20027;-71
2023/10/24 08:03:01;;;;;;;9.10;5.45;;;11.90;99.90;;;;;;4985296;28;20037;-71
2023/10/24 08:05:27;;;;;;;9.70;5.97;;;12.00;99.90;;;;;;4983806;28;20039;-70
2023/10/24 08:07:54;;;;;;;7.47;5.38;;;12.00;99.90;;;;;;4985306;28;20026;-72
2023/10/24 08:10:19;;;;;;;9.50;5.75;;;12.00;99.90;;;;;;4985883;28;20560;-71
2023/10/24 08:12:45;;;;;;;7.07;4.88;;;12.10;99.90;;;;;;4986391;28;20114;-72
2023/10/24 08:15:10;;;;;;;8.27;5.63;;;12.10;99.90;;;;;;4986080;28;20495;-72
2023/10/24 08:17:36;;;;;;;8.90;5.82;;;12.20;99.90;;;;;;4988409;28;20039;-71
2023/10/24 08:20:04;;;;;;;8.02;5.50;;;12.30;99.90;;;;;;4983459;28;20039;-71
2023/10/24 08:22:30;;;;;;;7.25;5.15;;;12.30;99.90;;;;;;4982781;28;20027;-71
2023/10/24 08:24:55;;;;;;;9.48;5.97;;;12.30;99.90;;;;;;4985449;28;20042;-72
2023/10/24 08:27:21;;;;;;;8.57;6.07;;;12.40;99.90;;;;;;4987656;28;20037;-71
2023/10/24 08:29:46;;;;;;;8.65;5.93;;;12.40;99.90;;;;;;4978520;28;20033;-72
2023/10/24 08:32:12;;;;;;;7.32;5.38;;;12.50;99.90;;;;;;4994253;28;20486;-72
2023/10/24 08:34:39;;;;;;;7.70;5.45;;;12.60;99.90;;;;;;4986967;28;20494;-72
2023/10/24 08:37:05;;;;;;;7.95;5.45;;;12.60;99.90;;;;;;4983666;28;20159;-72
2023/10/24 08:39:30;;;;;;;9.23;5.72;;;12.60;99.90;;;;;;4983072;28;20050;-72
2023/10/24 08:41:57;;;;;;;7.57;5.75;;;12.70;99.90;;;;;;4980018;28;20043;-72
2023/10/24 08:44:24;;;;;;;9.57;5.80;;;12.90;99.90;;;;;;4981296;28;20075;-71
2023/10/24 08:46:50;;;;;;;8.65;5.75;;;12.90;99.90;;;;;;4990729;28;20030;-72
2023/10/24 08:49:19;;;;;;;7.10;5.22;;;13.10;99.90;;;;;;4982876;28;20045;-73
2023/10/24 08:51:45;;;;;;;9.35;5.18;;;13.20;99.90;;;;;;4978251;28;20046;-71
2023/10/24 08:54:11;;;;;;;8.15;6.00;;;13.20;99.90;;;;;;4976017;28;20023;-71
2023/10/24 08:56:38;;;;;;;8.98;6.57;;;13.30;99.90;;;;;;4977652;28;20037;-71
2023/10/24 08:59:08;;;;;;;7.03;5.90;;;13.30;99.90;;;;;;4984459;28;20034;-72
2023/10/24 09:01:39;;;;;;;7.70;5.50;;;13.30;99.90;;;;;;4977153;28;20034;-71
2023/10/24 09:04:06;;;;;;;7.70;5.57;;;13.30;99.90;;;;;;4989238;28;20459;-72
2023/10/24 09:06:36;;;;;;;9.93;5.57;;;13.40;99.90;;;;;;4984892;28;20062;-71
2023/10/24 09:09:02;;;;;;;10.60;5.85;;;13.50;99.90;;;;;;4983222;28;20030;-71
2023/10/24 09:11:52;;;;;;;7.88;5.20;;;13.50;99.90;;;;;;4979489;28;20022;-71
2023/10/24 09:14:18;;;;;;;9.02;5.05;;;13.50;99.90;;;;;;4980534;28;20056;-71
2023/10/24 09:16:44;;;;;;;9.82;5.05;;;13.30;99.90;;;;;;4987701;28;20068;-71
2023/10/24 09:19:12;;;;;;;7.18;4.75;;;13.20;99.90;;;;;;4989677;28;20580;-71
2023/10/24 09:21:38;;;;;;;7.85;4.82;;;13.20;99.90;;;;;;4987719;28;20113;-71
2023/10/24 09:24:12;;;;;;;7.40;4.60;;;13.20;99.90;;;;;;4996482;28;20517;-71
2023/10/24 09:26:38;;;;;;;5.35;4.28;;;13.20;99.90;;;;;;4987713;28;20026;-71
2023/10/24 09:29:07;;;;;;;7.70;4.20;;;13.20;99.90;;;;;;4993811;28;20486;-71
2023/10/24 09:31:33;;;;;;;7.22;4.40;;;13.20;99.90;;;;;;4985461;28;20055;-70
2023/10/24 09:33:59;;;;;;;11.10;4.88;;;13.20;99.90;;;;;;4987627;28;20049;-71
2023/10/24 09:36:25;;;;;;;7.18;4.65;;;13.30;99.90;;;;;;4988696;28;20469;-71
2023/10/24 09:38:52;;;;;;;8.05;5.10;;;13.30;99.90;;;;;;4987615;28;20402;-71
2023/10/24 09:41:18;;;;;;;6.47;4.00;;;13.40;99.90;;;;;;4986943;28;20383;-72
2023/10/24 09:43:47;;;;;;;7.63;4.28;;;13.40;99.90;;;;;;4985131;28;20436;-71
2023/10/24 09:46:17;;;;;;;7.82;4.65;;;13.40;99.90;;;;;;4986378;28;20092;-70
2023/10/24 09:48:44;;;;;;;5.70;4.63;;;13.50;99.90;;;;;;4988441;28;20041;-70
2023/10/24 09:51:11;;;;;;;5.35;3.78;;;13.50;99.90;;;;;;4989704;28;20084;-70
2023/10/24 09:53:37;;;;;;;4.28;3.38;;;13.60;99.90;;;;;;4990386;28;20038;-71
2023/10/24 09:56:03;;;;;;;5.40;3.40;;;13.60;99.90;;;;;;4983789;28;20083;-71
2023/10/24 09:58:30;;;;;;;3.83;2.95;;;13.60;99.90;;;;;;4997239;28;20486;-71
2023/10/24 10:00:57;;;;;;;7.63;3.75;;;13.70;99.90;;;;;;4988134;28;20026;-71
2023/10/24 10:03:25;;;;;;;5.15;3.20;;;13.70;99.90;;;;;;4986464;28;20031;-71
2023/10/24 10:05:52;;;;;;;5.35;3.22;;;13.80;99.90;;;;;;4988275;28;20042;-71
2023/10/24 10:08:21;;;;;;;4.40;3.13;;;13.90;99.90;;;;;;4989744;28;20417;-71
2023/10/24 10:10:48;;;;;;;6.10;3.40;;;13.90;99.90;;;;;;4990075;28;20027;-71
2023/10/24 10:13:20;;;;;;;4.35;2.80;;;13.80;99.90;;;;;;4989409;28;21349;-71
2023/10/24 10:15:50;;;;;;;6.65;3.53;;;13.80;99.90;;;;;;4989333;28;20424;-71
2023/10/24 10:18:28;;;;;;;5.38;3.00;;;13.80;99.90;;;;;;4989084;28;20034;-71
2023/10/24 10:21:03;;;;;;;4.80;3.47;;;13.70;99.90;;;;;;4989964;28;20034;-71
2023/10/24 10:23:28;;;;;;;6.93;3.90;;;13.70;99.90;;;;;;4980061;28;20022;-71
2023/10/24 10:26:06;;;;;;;6.43;3.95;;;13.70;99.90;;;;;;4990205;28;20034;-71
2023/10/24 10:28:49;;;;;;;5.78;4.35;;;13.70;99.90;;;;;;4985014;28;20022;-71
2023/10/24 10:31:23;;;;;;;7.45;4.93;;;13.80;99.90;;;;;;4981134;28;20076;-71
2023/10/24 10:33:49;;;;;;;6.13;4.40;;;13.80;99.90;;;;;;4988909;28;20130;-71
2023/10/24 10:36:15;;;;;;;9.73;5.00;;;13.90;99.90;;;;;;4989053;28;20105;-71
2023/10/24 10:38:47;;;;;;;7.57;5.03;;;14.00;99.90;;;;;;4976214;28;20038;-71
2023/10/24 10:41:21;;;;;;;7.57;5.22;;;14.00;99.90;;;;;;4988619;28;20034;-71
2023/10/24 10:44:01;;;;;;;6.38;4.43;;;14.10;99.90;;;;;;4980508;28;20192;-71
2023/10/24 10:46:29;;;;;;;8.40;5.60;;;14.20;99.90;;;;;;4983722;28;20504;-71
2023/10/24 10:49:03;;;;;;;7.07;5.38;;;14.20;99.90;;;;;;4981837;28;20034;-70
2023/10/24 10:51:31;;;;;;;5.32;4.25;;;14.20;99.90;;;;;;4979773;28;20119;-71
2023/10/24 10:54:21;;;;;;;6.57;4.90;;;14.20;99.90;;;;;;4987904;28;20026;-71
2023/10/24 10:56:48;;;;;;;7.28;4.38;;;14.20;99.90;;;;;;4988114;28;20049;-70
2023/10/24 10:59:45;;;;;;;5.63;4.13;;;14.30;99.90;;;;;;4985442;28;20041;-70
2023/10/24 11:02:48;;;;;;;6.03;4.13;;;14.30;99.90;;;;;;4987708;28;20574;-70
2023/10/24 11:05:39;;;;;;;7.35;4.07;;;14.20;99.90;;;;;;4986933;28;20082;-70
2023/10/24 11:08:07;;;;;;;6.95;4.22;;;14.20;99.90;;;;;;5011257;28;20042;-70
2023/10/24 11:10:59;;;;;;;4.60;2.97;;;14.20;99.90;;;;;;4986783;28;20101;-71
2023/10/24 11:13:44;;;;;;;7.07;3.78;;;14.20;99.90;;;;;;4985851;28;20475;-71
2023/10/24 11:16:11;;;;;;;5.80;3.80;;;14.30;99.90;;;;;;4985195;28;20029;-70
2023/10/24 11:18:37;;;;;;;4.57;3.25;;;14.30;99.90;;;;;;4987777;28;20060;-71
2023/10/24 11:21:12;;;;;;;5.65;3.35;;;14.30;99.90;;;;;;4990097;28;20053;-71
2023/10/24 11:23:42;;;;;;;5.32;4.03;;;14.30;99.90;;;;;;4987512;28;20042;-71
2023/10/24 11:26:08;;;;;;;6.82;3.63;;;14.30;99.90;;;;;;4996244;28;20038;-71
2023/10/24 11:28:34;;;;;;;6.25;3.97;;;14.30;99.90;;;;;;4988310;28;20042;-71
2023/10/24 11:31:25;;;;;;;6.40;3.20;;;14.20;99.90;;;;;;4983085;28;20026;-69
2023/10/24 11:33:51;;;;;;;5.32;3.40;;;14.10;99.90;;;;;;4988420;28;20038;-71
2023/10/24 11:36:16;;;;;;;5.07;3.10;;;14.00;99.90;;;;;;4982749;28;20023;-71
2023/10/24 11:38:42;;;;;;;4.35;2.65;;;13.80;99.90;;;;;;4986615;28;20509;-71
2023/10/24 11:41:08;;;;;;;4.75;3.28;;;13.80;99.90;;;;;;4982340;28;20450;-71
2023/10/24 11:43:33;;;;;;;4.70;3.10;;;13.70;99.90;;;;;;4986751;28;20034;-71
2023/10/24 11:45:59;;;;;;;5.63;3.63;;;13.70;99.90;;;;;;4987467;28;20622;-71
2023/10/24 11:48:25;;;;;;;4.90;3.58;;;13.70;99.90;;;;;;4988726;28;20054;-71
2023/10/24 11:50:52;;;;;;;5.65;3.22;;;13.60;99.90;;;;;;4987656;28;20075;-71
2023/10/24 11:53:23;;;;;;;6.05;2.75;;;13.60;99.90;;;;;;4980543;28;20034;-70
2023/10/24 11:55:49;;;;;;;4.38;2.22;;;13.50;99.90;;;;;;4987294;28;20031;-70
2023/10/24 11:58:16;;;;;;;3.88;2.35;;;13.40;99.90;;;;;;4986276;28;20099;-70
2023/10/24 12:00:45;;;;;;;3.17;1.80;;;13.40;99.90;;;;;;4987547;28;20030;-71
2023/10/24 12:03:11;;;;;;;5.18;2.08;;;13.40;99.90;;;;;;4986813;28;20077;-69
2023/10/24 12:05:38;;;;;;;3.10;1.80;;;13.40;99.90;;;;;;4994281;28;20086;-70
2023/10/24 12:08:04;;;;;;;3.00;1.70;;;13.60;99.90;;;;;;4988772;28;20726;-70
2023/10/24 12:10:32;;;;;;;3.92;2.00;;;13.50;99.90;;;;;;4988444;28;20111;-70
2023/10/24 12:13:02;;;;;;;3.30;1.50;;;13.50;99.90;;;;;;4987644;28;20474;-71
2023/10/24 12:15:32;;;;;;;4.10;2.30;;;13.50;99.90;;;;;;4983572;28;20034;-71
2023/10/24 12:18:03;;;;;;;3.97;2.13;;;13.40;99.90;;;;;;4988162;28;20034;-69
2023/10/24 12:20:30;;;;;;;4.22;1.60;;;13.30;99.90;;;;;;4988112;28;20038;-70
2023/10/24 12:22:57;;;;;;;2.70;2.03;;;13.20;99.90;;;;;;4986742;28;20035;-70
2023/10/24 12:25:23;;;;;;;4.45;2.00;;;13.20;99.90;;;;;;4988060;28;20485;-70
2023/10/24 12:27:48;;;;;;;3.55;2.05;;;13.10;99.90;;;;;;4986222;28;20034;-70
2023/10/24 12:30:14;;;;;;;4.32;2.33;;;13.00;99.90;;;;;;4987081;28;20030;-69
2023/10/24 12:32:43;;;;;;;2.80;1.58;;;13.00;99.90;;;;;;5020889;28;20076;-69
2023/10/24 12:35:09;;;;;;;4.22;1.60;;;12.90;99.90;;;;;;4988135;28;20034;-69
2023/10/24 12:37:35;;;;;;;5.30;2.13;;;12.90;99.90;;;;;;4986536;28;20482;-69
2023/10/24 12:40:03;;;;;;;3.22;1.80;;;12.80;99.90;;;;;;4992573;28;20030;-69
2023/10/24 12:42:30;;;;;;;3.03;1.58;;;12.70;99.90;;;;;;4987127;28;20069;-69